sensor_id;sensor_type;location;lat;lon;timestamp;P1;durP1;ratioP1;P2;durP2;ratioP2
10389;SDS011;5241;47.830;12.972;2023-06-19T00:00:28;11.27;;;10.07;;
10389;SDS011;5241;47.830;12.972;2023-06-19T00:02:55;11.50;;;10.40;;
10389;SDS011;5241;47.830;12.972;2023-06-19T00:05:21;14.30;;;10.40;;
10389;SDS011;5241;47.830;12.972;2023-06-19T00:07:48;11.07;;;9.97;;
10389;SDS011;5241;47.830;12.972;2023-06-19T00:10:13;12.87;;;11.60;;
10389;SDS011;5241;47.830;12.972;2023-06-19T00:12:39;11.53;;;10.43;;
10389;SDS011;5241;47.830;12.972;2023-06-19T00:15:05;11.57;;;10.37;;
10389;SDS011;5241;47.830;12.972;2023-06-19T00:17:32;10.90;;;9.90;;
10389;SDS011;5241;47.830;12.972;2023-06-19T00:19:58;12.33;;;11.13;;
10389;SDS011;5241;47.830;12.972;2023-06-19T00:22:24;12.50;;;11.20;;
10389;SDS011;5241;47.830;12.972;2023-06-19T00:24:50;11.70;;;10.50;;
10389;SDS011;5241;47.830;12.972;2023-06-19T00:27:17;12.77;;;11.57;;
10389;SDS011;5241;47.830;12.972;2023-06-19T00:29:43;12.47;;;11.17;;
10389;SDS011;5241;47.830;12.972;2023-06-19T00:32:08;12.37;;;11.17;;
10389;SDS011;5241;47.830;12.972;2023-06-19T00:34:34;12.00;;;10.80;;
10389;SDS011;5241;47.830;12.972;2023-06-19T00:37:01;11.53;;;10.40;;
10389;SDS011;5241;47.830;12.972;2023-06-19T00:39:27;12.10;;;10.87;;
10389;SDS011;5241;47.830;12.972;2023-06-19T00:41:56;12.03;;;10.83;;
10389;SDS011;5241;47.830;12.972;2023-06-19T00:44:22;11.67;;;10.53;;
10389;SDS011;5241;47.830;12.972;2023-06-19T00:46:49;11.83;;;10.63;;
10389;SDS011;5241;47.830;12.972;2023-06-19T00:49:20;12.53;;;11.33;;
10389;SDS011;5241;47.830;12.972;2023-06-19T00:51:46;12.07;;;10.87;;
10389;SDS011;5241;47.830;12.972;2023-06-19T00:54:12;12.17;;;10.97;;
10389;SDS011;5241;47.830;12.972;2023-06-19T00:56:37;12.10;;;10.87;;
10389;SDS011;5241;47.830;12.972;2023-06-19T00:59:11;13.17;;;10.97;;
10389;SDS011;5241;47.830;12.972;2023-06-19T01:01:41;11.93;;;10.83;;
10389;SDS011;5241;47.830;12.972;2023-06-19T01:04:07;12.17;;;10.97;;
10389;SDS011;5241;47.830;12.972;2023-06-19T01:06:35;12.03;;;10.83;;
10389;SDS011;5241;47.830;12.972;2023-06-19T01:09:13;12.13;;;10.93;;
10389;SDS011;5241;47.830;12.972;2023-06-19T01:11:46;12.67;;;11.30;;
10389;SDS011;5241;47.830;12.972;2023-06-19T01:14:17;11.70;;;10.50;;
10389;SDS011;5241;47.830;12.972;2023-06-19T01:16:45;12.17;;;10.97;;
10389;SDS011;5241;47.830;12.972;2023-06-19T01:19:13;11.73;;;10.53;;
10389;SDS011;5241;47.830;12.972;2023-06-19T01:21:42;11.67;;;10.50;;
10389;SDS011;5241;47.830;12.972;2023-06-19T01:24:08;11.47;;;10.30;;
10389;SDS011;5241;47.830;12.972;2023-06-19T01:26:34;12.17;;;10.97;;
10389;SDS011;5241;47.830;12.972;2023-06-19T01:29:00;10.73;;;9.73;;
10389;SDS011;5241;47.830;12.972;2023-06-19T01:31:28;11.03;;;10.03;;
10389;SDS011;5241;47.830;12.972;2023-06-19T01:33:57;11.73;;;10.53;;
10389;SDS011;5241;47.830;12.972;2023-06-19T01:36:24;11.57;;;10.47;;
10389;SDS011;5241;47.830;12.972;2023-06-19T01:38:51;10.87;;;9.77;;
10389;SDS011;5241;47.830;12.972;2023-06-19T01:41:21;11.70;;;10.50;;
10389;SDS011;5241;47.830;12.972;2023-06-19T01:43:49;10.80;;;9.80;;
10389;SDS011;5241;47.830;12.972;2023-06-19T01:46:15;11.10;;;10.03;;
10389;SDS011;5241;47.830;12.972;2023-06-19T01:48:40;11.57;;;10.43;;
10389;SDS011;5241;47.830;12.972;2023-06-19T01:51:06;10.90;;;9.70;;
10389;SDS011;5241;47.830;12.972;2023-06-19T01:53:32;11.73;;;10.53;;
10389;SDS011;5241;47.830;12.972;2023-06-19T01:55:58;11.20;;;10.10;;
10389;SDS011;5241;47.830;12.972;2023-06-19T01:58:24;11.27;;;10.17;;
10389;SDS011;5241;47.830;12.972;2023-06-19T02:00:50;11.37;;;10.20;;
10389;SDS011;5241;47.830;12.972;2023-06-19T02:03:15;10.63;;;9.63;;
10389;SDS011;5241;47.830;12.972;2023-06-19T02:05:41;10.07;;;9.13;;
10389;SDS011;5241;47.830;12.972;2023-06-19T02:08:07;11.73;;;10.60;;
10389;SDS011;5241;47.830;12.972;2023-06-19T02:10:33;10.87;;;9.77;;
10389;SDS011;5241;47.830;12.972;2023-06-19T02:12:59;10.83;;;9.60;;
10389;SDS011;5241;47.830;12.972;2023-06-19T02:15:25;10.20;;;9.20;;
10389;SDS011;5241;47.830;12.972;2023-06-19T02:17:50;12.80;;;10.07;;
10389;SDS011;5241;47.830;12.972;2023-06-19T02:20:19;10.57;;;9.23;;
10389;SDS011;5241;47.830;12.972;2023-06-19T02:22:46;10.03;;;9.00;;
10389;SDS011;5241;47.830;12.972;2023-06-19T02:25:11;9.83;;;8.83;;
10389;SDS011;5241;47.830;12.972;2023-06-19T02:27:37;10.50;;;9.50;;
10389;SDS011;5241;47.830;12.972;2023-06-19T02:30:03;10.03;;;9.03;;
10389;SDS011;5241;47.830;12.972;2023-06-19T02:32:29;10.37;;;9.33;;
10389;SDS011;5241;47.830;12.972;2023-06-19T02:34:55;11.10;;;9.17;;
10389;SDS011;5241;47.830;12.972;2023-06-19T02:37:22;11.20;;;9.00;;
10389;SDS011;5241;47.830;12.972;2023-06-19T02:39:47;10.87;;;9.13;;
10389;SDS011;5241;47.830;12.972;2023-06-19T02:42:13;10.20;;;9.20;;
10389;SDS011;5241;47.830;12.972;2023-06-19T02:44:39;9.70;;;8.70;;
10389;SDS011;5241;47.830;12.972;2023-06-19T02:47:08;10.17;;;9.17;;
10389;SDS011;5241;47.830;12.972;2023-06-19T02:49:34;10.60;;;9.10;;
10389;SDS011;5241;47.830;12.972;2023-06-19T02:51:59;10.27;;;9.17;;
10389;SDS011;5241;47.830;12.972;2023-06-19T02:54:25;10.27;;;9.27;;
10389;SDS011;5241;47.830;12.972;2023-06-19T02:56:50;10.13;;;9.13;;
10389;SDS011;5241;47.830;12.972;2023-06-19T02:59:16;10.60;;;8.80;;
10389;SDS011;5241;47.830;12.972;2023-06-19T03:01:41;9.37;;;8.43;;
10389;SDS011;5241;47.830;12.972;2023-06-19T03:04:07;9.63;;;8.63;;
10389;SDS011;5241;47.830;12.972;2023-06-19T03:06:32;9.80;;;8.80;;
10389;SDS011;5241;47.830;12.972;2023-06-19T03:09:04;9.23;;;8.33;;
10389;SDS011;5241;47.830;12.972;2023-06-19T03:11:42;9.80;;;8.80;;
10389;SDS011;5241;47.830;12.972;2023-06-19T03:14:08;10.10;;;8.93;;
10389;SDS011;5241;47.830;12.972;2023-06-19T03:16:34;9.80;;;8.90;;
10389;SDS011;5241;47.830;12.972;2023-06-19T03:19:00;9.90;;;8.90;;
10389;SDS011;5241;47.830;12.972;2023-06-19T03:21:26;10.00;;;9.00;;
10389;SDS011;5241;47.830;12.972;2023-06-19T03:23:52;9.97;;;8.90;;
10389;SDS011;5241;47.830;12.972;2023-06-19T03:26:21;11.03;;;9.60;;
10389;SDS011;5241;47.830;12.972;2023-06-19T03:28:47;10.20;;;9.10;;
10389;SDS011;5241;47.830;12.972;2023-06-19T03:31:13;10.13;;;9.13;;
10389;SDS011;5241;47.830;12.972;2023-06-19T03:33:39;10.57;;;9.47;;
10389;SDS011;5241;47.830;12.972;2023-06-19T03:36:05;10.10;;;8.90;;
10389;SDS011;5241;47.830;12.972;2023-06-19T03:38:31;12.00;;;9.10;;
10389;SDS011;5241;47.830;12.972;2023-06-19T03:40:56;9.77;;;8.80;;
10389;SDS011;5241;47.830;12.972;2023-06-19T03:43:22;9.70;;;8.70;;
10389;SDS011;5241;47.830;12.972;2023-06-19T03:45:47;9.40;;;8.50;;
10389;SDS011;5241;47.830;12.972;2023-06-19T03:48:13;10.43;;;8.77;;
10389;SDS011;5241;47.830;12.972;2023-06-19T03:50:39;9.77;;;8.70;;
10389;SDS011;5241;47.830;12.972;2023-06-19T03:53:04;10.27;;;8.40;;
10389;SDS011;5241;47.830;12.972;2023-06-19T03:55:30;10.10;;;8.40;;
10389;SDS011;5241;47.830;12.972;2023-06-19T03:57:55;9.90;;;9.00;;
10389;SDS011;5241;47.830;12.972;2023-06-19T04:00:21;9.47;;;8.47;;
10389;SDS011;5241;47.830;12.972;2023-06-19T04:02:47;8.33;;;7.53;;
10389;SDS011;5241;47.830;12.972;2023-06-19T04:05:13;10.10;;;8.43;;
10389;SDS011;5241;47.830;12.972;2023-06-19T04:07:40;9.33;;;8.43;;
10389;SDS011;5241;47.830;12.972;2023-06-19T04:10:06;12.17;;;8.77;;
10389;SDS011;5241;47.830;12.972;2023-06-19T04:12:32;9.63;;;8.33;;
10389;SDS011;5241;47.830;12.972;2023-06-19T04:14:57;10.90;;;8.33;;
10389;SDS011;5241;47.830;12.972;2023-06-19T04:17:23;9.37;;;8.43;;
10389;SDS011;5241;47.830;12.972;2023-06-19T04:19:48;8.77;;;7.97;;
10389;SDS011;5241;47.830;12.972;2023-06-19T04:22:14;9.80;;;8.10;;
10389;SDS011;5241;47.830;12.972;2023-06-19T04:24:39;9.30;;;8.40;;
10389;SDS011;5241;47.830;12.972;2023-06-19T04:27:05;10.20;;;8.47;;
10389;SDS011;5241;47.830;12.972;2023-06-19T04:29:33;9.80;;;8.53;;
10389;SDS011;5241;47.830;12.972;2023-06-19T04:31:59;10.30;;;9.07;;
10389;SDS011;5241;47.830;12.972;2023-06-19T04:34:24;9.33;;;8.43;;
10389;SDS011;5241;47.830;12.972;2023-06-19T04:36:50;8.67;;;7.77;;
10389;SDS011;5241;47.830;12.972;2023-06-19T04:39:19;9.10;;;8.00;;
10389;SDS011;5241;47.830;12.972;2023-06-19T04:41:44;9.40;;;8.50;;
10389;SDS011;5241;47.830;12.972;2023-06-19T04:44:10;10.70;;;8.83;;
10389;SDS011;5241;47.830;12.972;2023-06-19T04:46:39;8.57;;;7.67;;
10389;SDS011;5241;47.830;12.972;2023-06-19T04:49:05;9.67;;;8.67;;
10389;SDS011;5241;47.830;12.972;2023-06-19T04:51:31;9.70;;;8.47;;
10389;SDS011;5241;47.830;12.972;2023-06-19T04:53:58;10.23;;;8.20;;
10389;SDS011;5241;47.830;12.972;2023-06-19T04:56:27;9.30;;;8.40;;
10389;SDS011;5241;47.830;12.972;2023-06-19T04:58:53;9.83;;;8.90;;
10389;SDS011;5241;47.830;12.972;2023-06-19T05:01:21;10.53;;;8.40;;
10389;SDS011;5241;47.830;12.972;2023-06-19T05:03:52;12.30;;;9.30;;
10389;SDS011;5241;47.830;12.972;2023-06-19T05:06:19;11.60;;;8.50;;
10389;SDS011;5241;47.830;12.972;2023-06-19T05:08:45;12.80;;;8.13;;
10389;SDS011;5241;47.830;12.972;2023-06-19T05:11:10;11.60;;;8.33;;
10389;SDS011;5241;47.830;12.972;2023-06-19T05:13:36;11.33;;;8.50;;
10389;SDS011;5241;47.830;12.972;2023-06-19T05:16:02;10.97;;;8.87;;
10389;SDS011;5241;47.830;12.972;2023-06-19T05:18:27;10.03;;;8.57;;
10389;SDS011;5241;47.830;12.972;2023-06-19T05:20:53;9.60;;;8.10;;
10389;SDS011;5241;47.830;12.972;2023-06-19T05:23:18;13.33;;;9.03;;
10389;SDS011;5241;47.830;12.972;2023-06-19T05:25:44;14.00;;;8.63;;
10389;SDS011;5241;47.830;12.972;2023-06-19T05:28:10;10.83;;;8.23;;
10389;SDS011;5241;47.830;12.972;2023-06-19T05:30:36;10.13;;;7.90;;
10389;SDS011;5241;47.830;12.972;2023-06-19T05:33:01;10.60;;;8.47;;
10389;SDS011;5241;47.830;12.972;2023-06-19T05:35:27;14.80;;;8.87;;
10389;SDS011;5241;47.830;12.972;2023-06-19T05:37:52;10.47;;;8.37;;
10389;SDS011;5241;47.830;12.972;2023-06-19T05:40:18;9.40;;;8.40;;
10389;SDS011;5241;47.830;12.972;2023-06-19T05:42:44;9.73;;;8.30;;
10389;SDS011;5241;47.830;12.972;2023-06-19T05:45:10;9.80;;;8.80;;
10389;SDS011;5241;47.830;12.972;2023-06-19T05:47:36;10.53;;;8.27;;
10389;SDS011;5241;47.830;12.972;2023-06-19T05:50:01;10.43;;;8.70;;
10389;SDS011;5241;47.830;12.972;2023-06-19T05:52:27;11.17;;;8.50;;
10389;SDS011;5241;47.830;12.972;2023-06-19T05:54:53;11.30;;;8.57;;
10389;SDS011;5241;47.830;12.972;2023-06-19T05:57:19;11.90;;;8.57;;
10389;SDS011;5241;47.830;12.972;2023-06-19T05:59:48;10.43;;;8.80;;
10389;SDS011;5241;47.830;12.972;2023-06-19T06:02:13;9.97;;;7.87;;
10389;SDS011;5241;47.830;12.972;2023-06-19T06:04:39;12.93;;;8.10;;
10389;SDS011;5241;47.830;12.972;2023-06-19T06:07:05;12.87;;;8.70;;
10389;SDS011;5241;47.830;12.972;2023-06-19T06:09:30;15.13;;;8.50;;
10389;SDS011;5241;47.830;12.972;2023-06-19T06:11:58;12.63;;;8.97;;
10389;SDS011;5241;47.830;12.972;2023-06-19T06:14:23;10.53;;;8.53;;
10389;SDS011;5241;47.830;12.972;2023-06-19T06:16:49;10.97;;;8.33;;
10389;SDS011;5241;47.830;12.972;2023-06-19T06:19:14;11.77;;;9.10;;
10389;SDS011;5241;47.830;12.972;2023-06-19T06:21:40;11.00;;;8.60;;
10389;SDS011;5241;47.830;12.972;2023-06-19T06:24:06;13.20;;;9.10;;
10389;SDS011;5241;47.830;12.972;2023-06-19T06:26:32;9.17;;;8.00;;
10389;SDS011;5241;47.830;12.972;2023-06-19T06:28:58;10.40;;;8.23;;
10389;SDS011;5241;47.830;12.972;2023-06-19T06:31:24;9.93;;;8.93;;
10389;SDS011;5241;47.830;12.972;2023-06-19T06:33:49;12.47;;;11.03;;
10389;SDS011;5241;47.830;12.972;2023-06-19T06:36:15;11.63;;;10.53;;
10389;SDS011;5241;47.830;12.972;2023-06-19T06:38:41;16.23;;;10.43;;
10389;SDS011;5241;47.830;12.972;2023-06-19T06:41:06;12.63;;;10.57;;
10389;SDS011;5241;47.830;12.972;2023-06-19T06:43:33;12.13;;;10.90;;
10389;SDS011;5241;47.830;12.972;2023-06-19T06:45:58;10.50;;;9.60;;
10389;SDS011;5241;47.830;12.972;2023-06-19T06:48:24;11.30;;;10.30;;
10389;SDS011;5241;47.830;12.972;2023-06-19T06:50:50;12.97;;;9.97;;
10389;SDS011;5241;47.830;12.972;2023-06-19T06:53:15;12.57;;;10.23;;
10389;SDS011;5241;47.830;12.972;2023-06-19T06:55:41;12.73;;;9.40;;
10389;SDS011;5241;47.830;12.972;2023-06-19T06:58:06;11.70;;;10.60;;
10389;SDS011;5241;47.830;12.972;2023-06-19T07:00:32;13.90;;;11.80;;
10389;SDS011;5241;47.830;12.972;2023-06-19T07:02:57;11.20;;;10.10;;
10389;SDS011;5241;47.830;12.972;2023-06-19T07:05:23;10.60;;;9.60;;
10389;SDS011;5241;47.830;12.972;2023-06-19T07:07:49;11.53;;;10.37;;
10389;SDS011;5241;47.830;12.972;2023-06-19T07:10:14;10.73;;;9.77;;
10389;SDS011;5241;47.830;12.972;2023-06-19T07:12:49;10.50;;;9.47;;
10389;SDS011;5241;47.830;12.972;2023-06-19T07:15:14;10.63;;;9.63;;
10389;SDS011;5241;47.830;12.972;2023-06-19T07:17:40;11.30;;;10.10;;
10389;SDS011;5241;47.830;12.972;2023-06-19T07:20:06;10.77;;;9.70;;
10389;SDS011;5241;47.830;12.972;2023-06-19T07:22:32;9.63;;;8.73;;
10389;SDS011;5241;47.830;12.972;2023-06-19T07:24:58;11.03;;;9.63;;
10389;SDS011;5241;47.830;12.972;2023-06-19T07:27:23;11.20;;;10.10;;
10389;SDS011;5241;47.830;12.972;2023-06-19T07:29:52;13.03;;;9.90;;
10389;SDS011;5241;47.830;12.972;2023-06-19T07:32:18;10.60;;;9.50;;
10389;SDS011;5241;47.830;12.972;2023-06-19T07:34:44;10.80;;;9.70;;
10389;SDS011;5241;47.830;12.972;2023-06-19T07:37:10;11.63;;;9.67;;
10389;SDS011;5241;47.830;12.972;2023-06-19T07:39:42;10.53;;;9.53;;
10389;SDS011;5241;47.830;12.972;2023-06-19T07:42:10;10.67;;;9.23;;
10389;SDS011;5241;47.830;12.972;2023-06-19T07:44:37;10.13;;;9.00;;
10389;SDS011;5241;47.830;12.972;2023-06-19T07:47:02;10.13;;;9.13;;
10389;SDS011;5241;47.830;12.972;2023-06-19T07:49:28;10.00;;;9.10;;
10389;SDS011;5241;47.830;12.972;2023-06-19T07:51:54;9.40;;;8.40;;
10389;SDS011;5241;47.830;12.972;2023-06-19T07:54:19;9.73;;;8.80;;
10389;SDS011;5241;47.830;12.972;2023-06-19T07:56:45;9.23;;;8.33;;
10389;SDS011;5241;47.830;12.972;2023-06-19T07:59:10;8.93;;;8.13;;
10389;SDS011;5241;47.830;12.972;2023-06-19T08:01:36;9.02;;;8.18;;
10389;SDS011;5241;47.830;12.972;2023-06-19T08:04:02;10.02;;;8.18;;
10389;SDS011;5241;47.830;12.972;2023-06-19T08:06:27;8.80;;;8.00;;
10389;SDS011;5241;47.830;12.972;2023-06-19T08:08:53;8.20;;;7.50;;
10389;SDS011;5241;47.830;12.972;2023-06-19T08:11:18;12.18;;;7.97;;
10389;SDS011;5241;47.830;12.972;2023-06-19T08:13:44;8.68;;;7.88;;
10389;SDS011;5241;47.830;12.972;2023-06-19T08:16:09;9.13;;;8.23;;
10389;SDS011;5241;47.830;12.972;2023-06-19T08:18:35;8.07;;;7.38;;
10389;SDS011;5241;47.830;12.972;2023-06-19T08:21:01;9.10;;;8.20;;
10389;SDS011;5241;47.830;12.972;2023-06-19T08:23:27;9.03;;;7.93;;
10389;SDS011;5241;47.830;12.972;2023-06-19T08:25:52;10.87;;;8.83;;
10389;SDS011;5241;47.830;12.972;2023-06-19T08:28:18;9.50;;;8.70;;
10389;SDS011;5241;47.830;12.972;2023-06-19T08:30:44;9.77;;;8.73;;
10389;SDS011;5241;47.830;12.972;2023-06-19T08:33:10;10.57;;;8.47;;
10389;SDS011;5241;47.830;12.972;2023-06-19T08:35:37;9.57;;;8.57;;
10389;SDS011;5241;47.830;12.972;2023-06-19T08:38:03;10.40;;;9.37;;
10389;SDS011;5241;47.830;12.972;2023-06-19T08:40:28;10.33;;;9.00;;
10389;SDS011;5241;47.830;12.972;2023-06-19T08:42:54;10.13;;;9.13;;
10389;SDS011;5241;47.830;12.972;2023-06-19T08:45:21;14.33;;;9.43;;
10389;SDS011;5241;47.830;12.972;2023-06-19T08:47:49;12.40;;;9.33;;
10389;SDS011;5241;47.830;12.972;2023-06-19T08:50:23;11.53;;;9.83;;
10389;SDS011;5241;47.830;12.972;2023-06-19T08:52:49;14.93;;;10.23;;
10389;SDS011;5241;47.830;12.972;2023-06-19T08:55:14;10.63;;;9.53;;
10389;SDS011;5241;47.830;12.972;2023-06-19T08:57:40;14.27;;;9.77;;
10389;SDS011;5241;47.830;12.972;2023-06-19T09:00:06;10.37;;;9.37;;
10389;SDS011;5241;47.830;12.972;2023-06-19T09:05:09;10.20;;;9.30;;
10389;SDS011;5241;47.830;12.972;2023-06-19T09:07:42;10.90;;;9.50;;
10389;SDS011;5241;47.830;12.972;2023-06-19T09:10:13;13.70;;;9.33;;
10389;SDS011;5241;47.830;12.972;2023-06-19T09:12:43;10.43;;;9.43;;
10389;SDS011;5241;47.830;12.972;2023-06-19T09:15:15;9.93;;;8.97;;
10389;SDS011;5241;47.830;12.972;2023-06-19T09:17:41;9.70;;;8.80;;
10389;SDS011;5241;47.830;12.972;2023-06-19T09:20:06;10.10;;;9.07;;
10389;SDS011;5241;47.830;12.972;2023-06-19T09:22:37;8.70;;;8.00;;
10389;SDS011;5241;47.830;12.972;2023-06-19T09:25:03;11.02;;;8.93;;
10389;SDS011;5241;47.830;12.972;2023-06-19T09:27:33;9.35;;;8.45;;
10389;SDS011;5241;47.830;12.972;2023-06-19T09:29:58;9.18;;;8.38;;
10389;SDS011;5241;47.830;12.972;2023-06-19T09:32:25;10.23;;;9.23;;
10389;SDS011;5241;47.830;12.972;2023-06-19T09:34:53;9.43;;;8.57;;
10389;SDS011;5241;47.830;12.972;2023-06-19T09:37:29;10.02;;;8.38;;
10389;SDS011;5241;47.830;12.972;2023-06-19T09:39:59;10.43;;;8.13;;
10389;SDS011;5241;47.830;12.972;2023-06-19T09:42:36;10.20;;;8.45;;
10389;SDS011;5241;47.830;12.972;2023-06-19T09:45:06;8.88;;;8.00;;
10389;SDS011;5241;47.830;12.972;2023-06-19T09:47:43;8.32;;;7.50;;
10389;SDS011;5241;47.830;12.972;2023-06-19T09:50:11;8.73;;;7.88;;
10389;SDS011;5241;47.830;12.972;2023-06-19T09:52:38;8.45;;;7.50;;
10389;SDS011;5241;47.830;12.972;2023-06-19T09:55:05;8.57;;;7.65;;
10389;SDS011;5241;47.830;12.972;2023-06-19T09:57:33;8.40;;;7.70;;
10389;SDS011;5241;47.830;12.972;2023-06-19T10:00:00;8.20;;;7.60;;
10389;SDS011;5241;47.830;12.972;2023-06-19T10:02:35;8.85;;;8.07;;
10389;SDS011;5241;47.830;12.972;2023-06-19T10:05:01;9.38;;;7.90;;
10389;SDS011;5241;47.830;12.972;2023-06-19T10:07:32;8.93;;;7.93;;
10389;SDS011;5241;47.830;12.972;2023-06-19T10:10:04;9.07;;;8.30;;
10389;SDS011;5241;47.830;12.972;2023-06-19T10:15:17;7.78;;;7.18;;
10389;SDS011;5241;47.830;12.972;2023-06-19T10:17:44;7.97;;;7.38;;
10389;SDS011;5241;47.830;12.972;2023-06-19T10:20:19;9.00;;;8.20;;
10389;SDS011;5241;47.830;12.972;2023-06-19T10:23:04;8.75;;;7.88;;
10389;SDS011;5241;47.830;12.972;2023-06-19T10:25:37;7.30;;;6.60;;
10389;SDS011;5241;47.830;12.972;2023-06-19T10:28:04;7.53;;;6.82;;
10389;SDS011;5241;47.830;12.972;2023-06-19T10:30:41;6.93;;;6.32;;
10389;SDS011;5241;47.830;12.972;2023-06-19T10:33:07;6.53;;;6.05;;
10389;SDS011;5241;47.830;12.972;2023-06-19T10:35:39;6.63;;;6.07;;
10389;SDS011;5241;47.830;12.972;2023-06-19T10:38:06;7.35;;;6.65;;
10389;SDS011;5241;47.830;12.972;2023-06-19T10:40:36;7.15;;;6.50;;
10389;SDS011;5241;47.830;12.972;2023-06-19T10:43:02;6.70;;;6.20;;
10389;SDS011;5241;47.830;12.972;2023-06-19T10:45:29;6.95;;;6.45;;
10389;SDS011;5241;47.830;12.972;2023-06-19T10:47:54;7.18;;;6.55;;
10389;SDS011;5241;47.830;12.972;2023-06-19T10:50:21;7.00;;;6.45;;
10389;SDS011;5241;47.830;12.972;2023-06-19T10:52:47;7.68;;;6.90;;
10389;SDS011;5241;47.830;12.972;2023-06-19T10:55:17;7.45;;;6.75;;
10389;SDS011;5241;47.830;12.972;2023-06-19T10:57:46;7.50;;;6.80;;
10389;SDS011;5241;47.830;12.972;2023-06-19T11:00:22;7.20;;;6.50;;
10389;SDS011;5241;47.830;12.972;2023-06-19T11:02:52;6.95;;;6.38;;
10389;SDS011;5241;47.830;12.972;2023-06-19T11:05:20;6.30;;;5.80;;
10389;SDS011;5241;47.830;12.972;2023-06-19T11:07:50;7.07;;;6.57;;
10389;SDS011;5241;47.830;12.972;2023-06-19T11:10:24;7.18;;;6.68;;
10389;SDS011;5241;47.830;12.972;2023-06-19T11:12:53;7.32;;;6.75;;
10389;SDS011;5241;47.830;12.972;2023-06-19T11:15:27;6.97;;;6.30;;
10389;SDS011;5241;47.830;12.972;2023-06-19T11:17:57;6.82;;;6.30;;
10389;SDS011;5241;47.830;12.972;2023-06-19T11:20:23;6.75;;;6.25;;
10389;SDS011;5241;47.830;12.972;2023-06-19T11:22:56;6.60;;;6.10;;
10389;SDS011;5241;47.830;12.972;2023-06-19T11:25:35;6.38;;;5.75;;
10389;SDS011;5241;47.830;12.972;2023-06-19T11:28:10;7.28;;;6.68;;
10389;SDS011;5241;47.830;12.972;2023-06-19T11:30:38;8.02;;;7.00;;
10389;SDS011;5241;47.830;12.972;2023-06-19T11:33:14;7.60;;;6.90;;
10389;SDS011;5241;47.830;12.972;2023-06-19T11:35:50;6.50;;;6.03;;
10389;SDS011;5241;47.830;12.972;2023-06-19T11:38:18;7.72;;;7.03;;
10389;SDS011;5241;47.830;12.972;2023-06-19T11:40:44;7.63;;;6.93;;
10389;SDS011;5241;47.830;12.972;2023-06-19T11:43:10;7.43;;;6.82;;
10389;SDS011;5241;47.830;12.972;2023-06-19T11:45:47;7.38;;;6.75;;
10389;SDS011;5241;47.830;12.972;2023-06-19T11:48:14;6.57;;;6.03;;
10389;SDS011;5241;47.830;12.972;2023-06-19T11:50:46;7.30;;;6.68;;
10389;SDS011;5241;47.830;12.972;2023-06-19T11:53:12;7.28;;;6.75;;
10389;SDS011;5241;47.830;12.972;2023-06-19T11:55:38;6.85;;;6.25;;
10389;SDS011;5241;47.830;12.972;2023-06-19T11:58:03;6.13;;;5.63;;
10389;SDS011;5241;47.830;12.972;2023-06-19T12:00:29;6.53;;;6.03;;
10389;SDS011;5241;47.830;12.972;2023-06-19T12:02:55;6.88;;;6.25;;
10389;SDS011;5241;47.830;12.972;2023-06-19T12:05:22;6.60;;;6.00;;
10389;SDS011;5241;47.830;12.972;2023-06-19T12:07:47;6.32;;;5.82;;
10389;SDS011;5241;47.830;12.972;2023-06-19T12:10:13;7.38;;;6.25;;
10389;SDS011;5241;47.830;12.972;2023-06-19T12:12:39;6.45;;;5.85;;
10389;SDS011;5241;47.830;12.972;2023-06-19T12:15:04;6.80;;;6.13;;
10389;SDS011;5241;47.830;12.972;2023-06-19T12:17:31;6.50;;;6.00;;
10389;SDS011;5241;47.830;12.972;2023-06-19T12:19:56;6.80;;;6.20;;
10389;SDS011;5241;47.830;12.972;2023-06-19T12:22:22;7.13;;;6.53;;
10389;SDS011;5241;47.830;12.972;2023-06-19T12:24:47;6.40;;;5.90;;
10389;SDS011;5241;47.830;12.972;2023-06-19T12:27:13;6.30;;;5.80;;
10389;SDS011;5241;47.830;12.972;2023-06-19T12:29:39;7.10;;;6.45;;
10389;SDS011;5241;47.830;12.972;2023-06-19T12:32:04;6.22;;;5.80;;
10389;SDS011;5241;47.830;12.972;2023-06-19T12:34:30;6.55;;;6.00;;
10389;SDS011;5241;47.830;12.972;2023-06-19T12:36:56;6.28;;;5.78;;
10389;SDS011;5241;47.830;12.972;2023-06-19T12:39:22;7.35;;;6.72;;
10389;SDS011;5241;47.830;12.972;2023-06-19T12:41:48;7.20;;;6.70;;
10389;SDS011;5241;47.830;12.972;2023-06-19T12:44:13;7.70;;;7.00;;
10389;SDS011;5241;47.830;12.972;2023-06-19T12:46:39;7.45;;;6.95;;
10389;SDS011;5241;47.830;12.972;2023-06-19T12:49:04;8.05;;;7.25;;
10389;SDS011;5241;47.830;12.972;2023-06-19T12:51:30;7.55;;;6.95;;
10389;SDS011;5241;47.830;12.972;2023-06-19T12:53:55;7.85;;;7.20;;
10389;SDS011;5241;47.830;12.972;2023-06-19T12:56:21;6.80;;;6.20;;
10389;SDS011;5241;47.830;12.972;2023-06-19T12:58:47;8.10;;;7.40;;
10389;SDS011;5241;47.830;12.972;2023-06-19T13:01:12;7.30;;;6.63;;
10389;SDS011;5241;47.830;12.972;2023-06-19T13:03:38;7.72;;;7.05;;
10389;SDS011;5241;47.830;12.972;2023-06-19T13:06:03;7.22;;;6.63;;
10389;SDS011;5241;47.830;12.972;2023-06-19T13:08:29;7.63;;;6.93;;
10389;SDS011;5241;47.830;12.972;2023-06-19T13:10:54;7.50;;;6.90;;
10389;SDS011;5241;47.830;12.972;2023-06-19T13:13:20;7.85;;;6.97;;
10389;SDS011;5241;47.830;12.972;2023-06-19T13:15:46;7.80;;;7.20;;
10389;SDS011;5241;47.830;12.972;2023-06-19T13:18:11;6.80;;;6.30;;
10389;SDS011;5241;47.830;12.972;2023-06-19T13:20:37;7.40;;;6.80;;
10389;SDS011;5241;47.830;12.972;2023-06-19T13:23:03;6.75;;;6.07;;
10389;SDS011;5241;47.830;12.972;2023-06-19T13:25:28;7.25;;;6.57;;
10389;SDS011;5241;47.830;12.972;2023-06-19T13:27:54;6.95;;;6.43;;
10389;SDS011;5241;47.830;12.972;2023-06-19T13:30:19;7.32;;;6.63;;
10389;SDS011;5241;47.830;12.972;2023-06-19T13:32:45;6.70;;;6.13;;
10389;SDS011;5241;47.830;12.972;2023-06-19T13:35:10;6.93;;;6.40;;
10389;SDS011;5241;47.830;12.972;2023-06-19T13:37:37;6.72;;;6.22;;
10389;SDS011;5241;47.830;12.972;2023-06-19T13:40:06;7.53;;;6.93;;
10389;SDS011;5241;47.830;12.972;2023-06-19T13:42:32;7.18;;;6.68;;
10389;SDS011;5241;47.830;12.972;2023-06-19T13:45:00;7.10;;;6.50;;
10389;SDS011;5241;47.830;12.972;2023-06-19T13:47:25;8.10;;;6.85;;
10389;SDS011;5241;47.830;12.972;2023-06-19T13:49:51;7.32;;;6.75;;
10389;SDS011;5241;47.830;12.972;2023-06-19T13:52:17;7.05;;;6.38;;
10389;SDS011;5241;47.830;12.972;2023-06-19T13:54:43;7.07;;;6.57;;
10389;SDS011;5241;47.830;12.972;2023-06-19T13:57:08;6.90;;;6.40;;
10389;SDS011;5241;47.830;12.972;2023-06-19T13:59:34;7.13;;;6.53;;
10389;SDS011;5241;47.830;12.972;2023-06-19T14:01:59;7.20;;;6.57;;
10389;SDS011;5241;47.830;12.972;2023-06-19T14:04:25;6.85;;;6.35;;
10389;SDS011;5241;47.830;12.972;2023-06-19T14:06:50;7.28;;;6.68;;
10389;SDS011;5241;47.830;12.972;2023-06-19T14:09:16;6.50;;;6.00;;
10389;SDS011;5241;47.830;12.972;2023-06-19T14:11:41;7.10;;;6.50;;
10389;SDS011;5241;47.830;12.972;2023-06-19T14:14:08;6.97;;;6.40;;
10389;SDS011;5241;47.830;12.972;2023-06-19T14:16:34;8.05;;;7.22;;
10389;SDS011;5241;47.830;12.972;2023-06-19T14:18:59;6.88;;;6.28;;
10389;SDS011;5241;47.830;12.972;2023-06-19T14:21:25;7.18;;;6.68;;
10389;SDS011;5241;47.830;12.972;2023-06-19T14:23:52;6.75;;;6.25;;
10389;SDS011;5241;47.830;12.972;2023-06-19T14:26:17;6.55;;;6.05;;
10389;SDS011;5241;47.830;12.972;2023-06-19T14:28:43;6.25;;;5.75;;
10389;SDS011;5241;47.830;12.972;2023-06-19T14:31:08;7.03;;;6.35;;
10389;SDS011;5241;47.830;12.972;2023-06-19T14:33:34;6.60;;;6.13;;
10389;SDS011;5241;47.830;12.972;2023-06-19T14:36:01;7.10;;;6.50;;
10389;SDS011;5241;47.830;12.972;2023-06-19T14:38:28;7.50;;;6.85;;
10389;SDS011;5241;47.830;12.972;2023-06-19T14:40:56;6.72;;;6.22;;